Time;durP1;ratioP1;P1;durP2;ratioP2;P2;SDS_P1;SDS_P2;PMS_P1;PMS_P2;Temp;Humidity;BMP_temperature;BMP_pressure;BME280_temperature;BME280_humidity;BME280_pressure;Samples;Min_cycle;Max_cycle;Signal;HPM_P1;HPM_P2
2022/07/10 00:02:00;;;;;;;0.70;0.30;;;18.30;99.90;;;;;;5003554;28;20088;-79
2022/07/10 00:04:27;;;;;;;0.30;0.30;;;18.40;99.90;;;;;;5002081;28;20107;-80
2022/07/10 00:06:55;;;;;;;0.40;0.32;;;18.40;99.90;;;;;;5024415;28;20073;-79
2022/07/10 00:09:22;;;;;;;0.30;0.30;;;18.30;99.90;;;;;;5024715;28;20107;-80
2022/07/10 00:11:49;;;;;;;0.32;0.32;;;18.30;99.90;;;;;;5023441;28;20080;-79
2022/07/10 00:14:16;;;;;;;0.22;0.22;;;18.30;99.90;;;;;;5022355;28;20053;-78
2022/07/10 00:16:43;;;;;;;0.50;0.50;;;18.20;99.90;;;;;;5007511;28;20046;-78
2022/07/10 00:19:10;;;;;;;0.30;0.30;;;18.20;99.90;;;;;;5022864;28;20111;-79
2022/07/10 00:21:37;;;;;;;0.77;0.50;;;18.10;99.90;;;;;;5006619;28;20148;-79
2022/07/10 00:24:04;;;;;;;0.43;0.38;;;18.10;99.90;;;;;;5006652;28;20579;-79
2022/07/10 00:26:31;;;;;;;0.60;0.50;;;18.10;99.90;;;;;;5024792;28;20141;-78
2022/07/10 00:28:58;;;;;;;0.63;0.55;;;18.10;99.90;;;;;;5021987;28;20132;-78
2022/07/10 00:31:25;;;;;;;0.40;0.40;;;18.10;99.90;;;;;;5006732;28;20587;-79
2022/07/10 00:33:52;;;;;;;0.30;0.30;;;18.00;99.90;;;;;;5024010;28;20199;-79
2022/07/10 00:36:19;;;;;;;0.40;0.40;;;18.00;99.90;;;;;;5006736;28;20132;-79
2022/07/10 00:38:45;;;;;;;0.70;0.50;;;18.00;99.90;;;;;;5023330;28;20677;-79
2022/07/10 00:41:12;;;;;;;0.47;0.30;;;17.90;99.90;;;;;;5024676;28;20085;-79
2022/07/10 00:44:11;;;;;;;0.30;0.30;;;18.00;99.90;;;;;;5023039;28;20054;-78
2022/07/10 00:46:40;;;;;;;0.30;0.30;;;17.90;99.90;;;;;;5003342;28;20076;-78
2022/07/10 00:49:07;;;;;;;0.30;0.30;;;17.80;99.90;;;;;;5027884;28;20056;-78
2022/07/10 00:51:34;;;;;;;0.30;0.30;;;17.80;99.90;;;;;;5027200;28;20061;-78
2022/07/10 00:54:01;;;;;;;0.30;0.30;;;17.70;99.90;;;;;;5026408;28;20343;-78
2022/07/10 00:56:28;;;;;;;0.63;0.55;;;17.80;99.90;;;;;;5026972;28;20132;-78
2022/07/10 00:58:55;;;;;;;0.30;0.30;;;17.70;99.90;;;;;;5009058;28;20186;-78
2022/07/10 01:01:24;;;;;;;1.55;0.55;;;17.70;99.90;;;;;;5027017;28;20073;-78
2022/07/10 01:03:52;;;;;;;0.30;0.30;;;17.70;99.90;;;;;;5026485;28;20053;-78
2022/07/10 01:06:18;;;;;;;0.30;0.30;;;17.60;99.90;;;;;;5026574;28;20037;-78
2022/07/10 01:08:45;;;;;;;0.30;0.30;;;17.60;99.90;;;;;;5025396;28;20081;-79
2022/07/10 01:11:13;;;;;;;0.38;0.38;;;17.60;99.90;;;;;;5010591;28;20104;-78
2022/07/10 01:13:41;;;;;;;0.30;0.30;;;17.50;99.90;;;;;;5009294;28;20065;-78
2022/07/10 01:16:08;;;;;;;0.55;0.40;;;17.50;99.90;;;;;;5010559;28;20099;-78
2022/07/10 01:18:35;;;;;;;0.60;0.38;;;17.40;99.90;;;;;;5010335;28;20059;-78
2022/07/10 01:21:03;;;;;;;0.52;0.45;;;17.40;99.90;;;;;;5026341;28;20052;-78
2022/07/10 01:23:29;;;;;;;0.63;0.40;;;17.40;99.90;;;;;;5025613;28;20132;-78
2022/07/10 01:25:56;;;;;;;0.65;0.60;;;17.40;99.90;;;;;;5027570;28;20053;-79
2022/07/10 01:28:23;;;;;;;0.63;0.40;;;17.30;99.90;;;;;;5025115;28;20140;-79
2022/07/10 01:30:50;;;;;;;0.30;0.30;;;17.30;99.90;;;;;;5016498;23;20093;-88
2022/07/10 01:33:17;;;;;;;0.38;0.32;;;17.30;99.90;;;;;;5040431;28;20059;-88
2022/07/10 01:35:44;;;;;;;0.30;0.30;;;17.30;99.90;;;;;;5040515;28;20056;-89
2022/07/10 01:38:11;;;;;;;0.40;0.40;;;17.20;99.90;;;;;;5036202;28;20045;-88
2022/07/10 01:40:38;;;;;;;0.85;0.43;;;17.20;99.90;;;;;;5059787;28;20052;-92
2022/07/10 01:43:05;;;;;;;0.30;0.30;;;17.10;99.90;;;;;;5039073;28;20461;-93
2022/07/10 01:45:32;;;;;;;0.40;0.40;;;17.10;99.90;;;;;;5039325;28;20048;-93
2022/07/10 01:48:00;;;;;;;0.30;0.30;;;17.10;99.90;;;;;;5041592;28;20048;-89
2022/07/10 01:50:27;;;;;;;0.50;0.40;;;17.00;99.90;;;;;;5058585;28;20048;-91
2022/07/10 01:52:54;;;;;;;0.38;0.38;;;17.00;99.90;;;;;;5059196;28;20043;-90
2022/07/10 01:55:21;;;;;;;1.13;0.63;;;16.90;99.90;;;;;;5060699;28;20048;-90
2022/07/10 01:57:49;;;;;;;0.50;0.50;;;16.90;99.90;;;;;;5057851;28;20059;-88
2022/07/10 02:00:17;;;;;;;0.63;0.50;;;16.90;99.90;;;;;;5047579;28;20132;-90
2022/07/10 02:04:40;;;;;;;0.20;0.20;;;16.90;99.90;;;;;;5039540;28;20109;-89
2022/07/10 02:05:31;;;;;;;0.50;0.50;;;16.90;99.90;;;;;;5062861;28;20098;-89
2022/07/10 02:07:59;;;;;;;0.40;0.40;;;16.90;99.90;;;;;;5045629;28;20044;-88
2022/07/10 02:10:26;;;;;;;0.40;0.40;;;16.80;99.90;;;;;;5057550;28;20375;-89
2022/07/10 02:12:53;;;;;;;0.30;0.30;;;16.80;99.90;;;;;;5079453;28;20048;-89
2022/07/10 02:15:20;;;;;;;0.43;0.40;;;16.80;99.90;;;;;;5080919;28;20105;-87
2022/07/10 02:17:47;;;;;;;0.90;0.40;;;16.70;99.90;;;;;;5071866;28;20052;-88
2022/07/10 02:20:15;;;;;;;0.60;0.38;;;16.70;99.90;;;;;;5041935;28;20052;-89
2022/07/10 02:22:42;;;;;;;0.32;0.30;;;16.70;99.90;;;;;;5041477;28;20048;-89
2022/07/10 02:25:09;;;;;;;0.50;0.50;;;16.60;99.90;;;;;;5041520;28;20067;-91
2022/07/10 02:27:36;;;;;;;0.30;0.30;;;16.60;99.90;;;;;;5047948;28;20043;-88
2022/07/10 02:30:03;;;;;;;0.45;0.45;;;16.60;99.90;;;;;;5062404;28;20052;-86
2022/07/10 02:32:30;;;;;;;0.50;0.50;;;16.60;99.90;;;;;;5062176;28;20052;-90
2022/07/10 02:34:57;;;;;;;0.30;0.30;;;16.50;99.90;;;;;;5063814;28;20121;-88
2022/07/10 02:37:25;;;;;;;0.60;0.40;;;16.50;99.90;;;;;;5062029;28;20048;-90
2022/07/10 02:39:52;;;;;;;0.52;0.38;;;16.50;99.90;;;;;;5063807;28;20102;-89
2022/07/10 02:42:19;;;;;;;0.20;0.20;;;16.50;99.90;;;;;;5079678;28;20048;-88
2022/07/10 02:44:46;;;;;;;0.30;0.30;;;16.40;99.90;;;;;;5080801;28;20144;-90
2022/07/10 02:47:13;;;;;;;0.30;0.20;;;16.40;99.90;;;;;;5079265;28;20048;-89
2022/07/10 02:49:41;;;;;;;1.27;0.40;;;16.40;99.90;;;;;;5068843;28;20055;-88
2022/07/10 02:52:08;;;;;;;0.40;0.40;;;16.40;99.90;;;;;;5050921;28;20052;-91
2022/07/10 02:54:34;;;;;;;0.50;0.50;;;16.40;99.90;;;;;;5062069;28;20049;-88
2022/07/10 02:57:02;;;;;;;1.65;0.63;;;16.40;99.90;;;;;;5061188;28;20040;-90
2022/07/10 02:59:29;;;;;;;1.40;0.40;;;16.40;99.90;;;;;;5062906;28;20063;-91
2022/07/10 03:01:56;;;;;;;1.52;0.52;;;16.30;99.90;;;;;;5053454;28;20059;-87
2022/07/10 03:04:23;;;;;;;0.40;0.40;;;16.30;99.90;;;;;;5077497;28;20111;-88
2022/07/10 03:06:50;;;;;;;0.38;0.38;;;16.20;99.90;;;;;;5068421;28;20045;-93
2022/07/10 03:09:17;;;;;;;0.50;0.50;;;16.20;99.90;;;;;;5050189;28;20063;-88
2022/07/10 03:11:44;;;;;;;0.75;0.50;;;16.20;99.90;;;;;;5056370;28;20067;-88
2022/07/10 03:14:11;;;;;;;0.40;0.40;;;16.20;99.90;;;;;;5052473;28;20102;-91
2022/07/10 03:16:38;;;;;;;0.38;0.38;;;16.20;99.90;;;;;;5059184;28;20449;-90
2022/07/10 03:19:05;;;;;;;0.93;0.45;;;16.20;99.90;;;;;;5068932;28;20559;-90
2022/07/10 03:21:32;;;;;;;0.60;0.40;;;16.10;99.90;;;;;;5050597;28;20040;-91
2022/07/10 03:23:59;;;;;;;1.02;0.47;;;16.10;99.90;;;;;;5051788;28;20078;-93
2022/07/10 03:26:29;;;;;;;0.57;0.30;;;16.10;99.90;;;;;;5072462;28;20047;-87
2022/07/10 03:28:56;;;;;;;0.73;0.50;;;16.10;99.90;;;;;;5063532;28;20068;-88
2022/07/10 03:31:23;;;;;;;0.40;0.40;;;16.00;99.90;;;;;;5043124;28;20051;-87
2022/07/10 03:33:52;;;;;;;0.57;0.55;;;16.00;99.90;;;;;;5065625;28;20224;-87
2022/07/10 03:36:19;;;;;;;1.02;0.45;;;16.00;99.90;;;;;;5044739;28;20051;-88
2022/07/10 03:38:46;;;;;;;0.35;0.32;;;15.90;99.90;;;;;;5053156;28;20044;-90
2022/07/10 03:41:14;;;;;;;0.40;0.40;;;15.90;99.90;;;;;;5060214;28;20048;-87
2022/07/10 03:43:41;;;;;;;0.32;0.30;;;15.90;99.90;;;;;;5049217;28;20048;-89
2022/07/10 03:46:08;;;;;;;1.10;0.50;;;15.90;99.90;;;;;;5077241;28;20048;-87
2022/07/10 03:48:35;;;;;;;0.52;0.30;;;15.80;99.90;;;;;;5071026;28;20044;-88
2022/07/10 03:51:04;;;;;;;0.35;0.32;;;15.70;99.90;;;;;;5054947;28;20097;-87
2022/07/10 03:53:31;;;;;;;0.50;0.40;;;15.70;99.90;;;;;;5067668;28;20059;-91
2022/07/10 03:56:00;;;;;;;0.38;0.35;;;15.70;99.90;;;;;;5064500;28;20048;-90
2022/07/10 03:58:27;;;;;;;0.45;0.40;;;15.70;99.90;;;;;;5065137;28;20482;-89
2022/07/10 04:00:54;;;;;;;0.40;0.38;;;15.70;99.90;;;;;;5048236;28;20482;-88
2022/07/10 04:03:21;;;;;;;0.38;0.38;;;15.70;99.90;;;;;;5073970;28;20052;-89
2022/07/10 04:05:48;;;;;;;0.63;0.40;;;15.70;99.90;;;;;;5044524;28;20064;-88
2022/07/10 04:08:15;;;;;;;0.90;0.38;;;15.70;99.90;;;;;;5055128;28;20052;-87
2022/07/10 04:10:42;;;;;;;0.35;0.32;;;15.70;99.90;;;;;;5077771;28;20056;-89
2022/07/10 04:13:09;;;;;;;0.28;0.20;;;15.60;99.90;;;;;;5058769;28;20048;-91
2022/07/10 04:15:36;;;;;;;0.40;0.40;;;15.60;99.90;;;;;;5068522;28;20368;-92
2022/07/10 04:18:03;;;;;;;0.40;0.40;;;15.50;99.90;;;;;;5072775;28;20055;-87
2022/07/10 04:20:30;;;;;;;0.20;0.20;;;15.50;99.90;;;;;;5064894;28;20083;-90
2022/07/10 04:22:57;;;;;;;0.38;0.38;;;15.50;99.90;;;;;;5051191;28;20443;-86
2022/07/10 04:25:24;;;;;;;0.40;0.40;;;15.50;99.90;;;;;;5079690;28;20048;-88
2022/07/10 04:27:51;;;;;;;0.32;0.32;;;15.50;99.90;;;;;;5065917;28;20045;-88
2022/07/10 04:30:18;;;;;;;0.38;0.38;;;15.50;99.90;;;;;;5091024;28;20110;-87
2022/07/10 04:32:46;;;;;;;0.43;0.40;;;15.50;99.90;;;;;;5049840;28;20059;-88
2022/07/10 04:35:12;;;;;;;0.32;0.32;;;15.60;99.90;;;;;;5048469;28;20513;-89
2022/07/10 04:37:39;;;;;;;0.45;0.45;;;15.60;99.90;;;;;;5050417;28;20124;-91
2022/07/10 04:40:07;;;;;;;0.50;0.47;;;15.60;99.90;;;;;;5070763;28;20635;-88
2022/07/10 04:42:34;;;;;;;0.75;0.43;;;15.60;99.90;;;;;;5039336;28;20109;-89
2022/07/10 04:45:02;;;;;;;0.40;0.40;;;15.60;99.90;;;;;;5057032;28;20067;-89
2022/07/10 04:47:29;;;;;;;0.50;0.50;;;15.70;99.90;;;;;;5047321;28;20055;-88
2022/07/10 04:49:56;;;;;;;0.30;0.30;;;15.70;99.90;;;;;;5050254;28;20049;-87
2022/07/10 04:52:23;;;;;;;0.30;0.30;;;15.70;99.90;;;;;;5051879;28;20048;-88
2022/07/10 04:54:50;;;;;;;0.40;0.35;;;15.80;99.90;;;;;;5065820;28;20099;-90
2022/07/10 04:57:17;;;;;;;0.65;0.40;;;15.80;99.90;;;;;;5069426;28;20191;-91
2022/07/10 04:59:44;;;;;;;0.30;0.30;;;15.80;99.90;;;;;;5052089;28;20074;-90
2022/07/10 05:02:11;;;;;;;0.93;0.65;;;15.80;99.90;;;;;;5054937;28;20056;-88
2022/07/10 05:04:38;;;;;;;0.55;0.40;;;15.80;99.90;;;;;;5074055;28;20047;-88
2022/07/10 05:07:05;;;;;;;0.40;0.35;;;15.80;99.90;;;;;;5065452;28;20086;-90
2022/07/10 05:09:32;;;;;;;0.57;0.25;;;15.90;99.90;;;;;;5051347;28;20406;-90
2022/07/10 05:11:59;;;;;;;0.30;0.30;;;15.90;99.90;;;;;;5065738;28;20052;-90
2022/07/10 05:14:28;;;;;;;0.60;0.40;;;16.00;99.90;;;;;;5058496;28;20090;-91
2022/07/10 05:16:55;;;;;;;0.60;0.40;;;16.00;99.90;;;;;;5042421;28;20445;-90
2022/07/10 05:19:22;;;;;;;1.40;0.55;;;16.00;99.90;;;;;;5064342;28;20044;-89
2022/07/10 05:21:49;;;;;;;0.30;0.30;;;16.00;99.90;;;;;;5047582;28;20094;-90
2022/07/10 05:24:16;;;;;;;0.30;0.30;;;16.00;99.90;;;;;;5047415;28;20402;-91
2022/07/10 05:26:43;;;;;;;0.60;0.50;;;16.10;99.90;;;;;;5065542;28;20056;-88
2022/07/10 05:29:11;;;;;;;0.55;0.40;;;16.10;99.90;;;;;;5054666;28;20087;-91
2022/07/10 05:31:37;;;;;;;0.30;0.30;;;16.10;99.90;;;;;;5048405;28;20053;-87
2022/07/10 05:34:05;;;;;;;0.20;0.20;;;16.20;99.90;;;;;;5053453;28;20060;-89
2022/07/10 05:36:32;;;;;;;0.60;0.30;;;16.20;99.90;;;;;;5066809;28;20045;-89
2022/07/10 05:38:59;;;;;;;0.45;0.40;;;16.20;99.90;;;;;;5057371;28;20052;-90
2022/07/10 05:41:32;;;;;;;0.32;0.30;;;16.20;99.90;;;;;;5073298;28;20121;-91
2022/07/10 05:44:00;;;;;;;0.30;0.30;;;16.30;99.90;;;;;;5077393;28;20104;-92
2022/07/10 05:46:27;;;;;;;0.20;0.20;;;16.30;99.90;;;;;;5049171;28;20782;-90
2022/07/10 05:48:54;;;;;;;0.30;0.30;;;16.40;99.90;;;;;;5070292;28;20056;-92
2022/07/10 05:51:22;;;;;;;0.25;0.22;;;16.40;99.90;;;;;;5048898;28;20062;-93
2022/07/10 05:54:05;;;;;;;0.22;0.22;;;16.50;99.90;;;;;;5053128;28;20120;-90
2022/07/10 05:56:32;;;;;;;0.40;0.38;;;16.50;99.90;;;;;;5048528;28;20437;-86
2022/07/10 05:59:03;;;;;;;0.28;0.28;;;16.50;99.90;;;;;;5062140;28;20056;-84
2022/07/10 06:01:31;;;;;;;0.35;0.35;;;16.60;99.90;;;;;;5066184;28;20494;-83
2022/07/10 06:03:58;;;;;;;0.30;0.30;;;16.70;99.90;;;;;;5063594;28;20052;-86
2022/07/10 06:06:25;;;;;;;0.20;0.17;;;16.70;99.90;;;;;;5045172;28;20044;-86
2022/07/10 06:08:52;;;;;;;0.25;0.25;;;16.70;99.90;;;;;;5048209;28;20112;-91
2022/07/10 06:11:21;;;;;;;0.22;0.22;;;16.70;99.90;;;;;;5044677;28;20093;-89
2022/07/10 06:13:48;;;;;;;0.30;0.30;;;16.80;99.90;;;;;;5054395;28;20070;-90
2022/07/10 06:16:15;;;;;;;0.30;0.30;;;16.90;99.90;;;;;;5054905;28;20045;-89
2022/07/10 06:18:43;;;;;;;0.55;0.55;;;16.90;99.90;;;;;;5065348;28;20415;-87
2022/07/10 06:21:11;;;;;;;0.30;0.30;;;17.00;99.90;;;;;;5069718;28;20098;-86
2022/07/10 06:23:38;;;;;;;0.22;0.22;;;17.10;99.90;;;;;;5051661;28;20090;-88
2022/07/10 06:26:05;;;;;;;0.45;0.35;;;17.10;99.90;;;;;;5056341;28;20141;-88
2022/07/10 06:28:34;;;;;;;0.47;0.30;;;17.20;99.90;;;;;;5054293;28;20093;-86
2022/07/10 06:31:02;;;;;;;0.30;0.30;;;17.30;99.90;;;;;;5057298;28;20122;-88
2022/07/10 06:33:29;;;;;;;0.20;0.20;;;17.40;99.90;;;;;;5054216;28;20109;-88
2022/07/10 06:35:56;;;;;;;0.20;0.20;;;17.40;99.90;;;;;;5054585;28;20391;-87
2022/07/10 06:38:23;;;;;;;0.38;0.38;;;17.50;99.90;;;;;;5072794;28;20040;-89
2022/07/10 06:40:50;;;;;;;0.20;0.20;;;17.60;99.90;;;;;;5060618;28;20421;-87
2022/07/10 06:43:17;;;;;;;0.25;0.25;;;17.60;99.90;;;;;;5054408;28;20044;-89
2022/07/10 06:45:44;;;;;;;0.50;0.40;;;17.70;99.90;;;;;;5066583;28;20055;-89
2022/07/10 06:48:11;;;;;;;0.40;0.40;;;17.70;99.90;;;;;;5063720;28;20055;-89
2022/07/10 06:50:38;;;;;;;0.32;0.28;;;17.80;99.90;;;;;;5048498;28;20055;-92
2022/07/10 06:53:05;;;;;;;0.20;0.20;;;17.90;99.90;;;;;;5063225;28;20051;-90
2022/07/10 06:55:33;;;;;;;0.20;0.20;;;18.00;99.90;;;;;;5050493;28;20052;-91
2022/07/10 06:58:01;;;;;;;0.30;0.30;;;18.00;99.90;;;;;;5065145;28;20054;-87
2022/07/10 07:00:28;;;;;;;0.38;0.38;;;18.10;99.90;;;;;;5071020;28;20096;-87
2022/07/10 07:02:55;;;;;;;0.45;0.40;;;18.20;99.90;;;;;;5064669;28;20048;-88
2022/07/10 07:05:23;;;;;;;0.35;0.35;;;18.20;99.90;;;;;;5043396;28;20044;-88
2022/07/10 07:07:50;;;;;;;0.20;0.20;;;18.30;99.90;;;;;;5070824;28;20052;-91
2022/07/10 07:10:17;;;;;;;0.20;0.20;;;18.50;99.90;;;;;;5046452;28;20048;-90
2022/07/10 07:12:44;;;;;;;0.95;0.40;;;18.50;99.90;;;;;;5055512;28;20181;-89
2022/07/10 07:15:12;;;;;;;0.17;0.17;;;18.60;99.90;;;;;;5054897;28;20124;-89
2022/07/10 07:23:12;;;;;;;0.20;0.20;;;18.90;99.90;;;;;;5070661;28;20367;-89
2022/07/10 07:25:41;;;;;;;0.30;0.30;;;19.00;99.90;;;;;;5049150;28;20052;-87
2022/07/10 07:28:10;;;;;;;0.50;0.30;;;19.00;99.90;;;;;;5057500;28;20048;-87
2022/07/10 07:30:37;;;;;;;0.20;0.20;;;19.10;99.90;;;;;;5057430;28;20055;-88
2022/07/10 07:33:04;;;;;;;0.43;0.40;;;19.20;99.90;;;;;;5072065;28;20047;-89
2022/07/10 07:35:31;;;;;;;0.52;0.45;;;19.30;99.90;;;;;;5072864;28;20063;-88
2022/07/10 07:37:58;;;;;;;0.25;0.25;;;19.30;99.90;;;;;;5056508;28;20043;-89
2022/07/10 07:40:25;;;;;;;0.20;0.20;;;19.30;99.90;;;;;;5055777;28;20109;-88
2022/07/10 07:42:53;;;;;;;0.20;0.20;;;19.40;99.90;;;;;;5071732;28;20055;-89
2022/07/10 07:45:20;;;;;;;0.30;0.30;;;19.50;99.90;;;;;;5064505;28;20052;-88
2022/07/10 07:47:52;;;;;;;0.40;0.40;;;19.40;99.90;;;;;;5054967;28;20052;-88
2022/07/10 07:50:37;;;;;;;0.20;0.20;;;19.50;99.90;;;;;;5045960;28;20101;-90
2022/07/10 07:53:04;;;;;;;0.40;0.40;;;19.50;99.90;;;;;;5057392;28;20044;-90
2022/07/10 07:59:15;;;;;;;0.30;0.30;;;19.50;99.90;;;;;;5090223;23;20075;-91
2022/07/10 08:01:43;;;;;;;0.40;0.40;;;19.60;99.90;;;;;;5065004;28;20155;-88
2022/07/10 08:04:19;;;;;;;0.60;0.50;;;19.70;99.90;;;;;;5068105;28;20048;-88
2022/07/10 08:06:51;;;;;;;0.40;0.40;;;19.70;99.90;;;;;;5048234;28;20040;-88
2022/07/10 08:09:19;;;;;;;0.30;0.30;;;19.80;99.90;;;;;;5051270;28;20531;-87
2022/07/10 08:11:46;;;;;;;0.43;0.40;;;19.80;99.90;;;;;;5051338;28;20485;-87
2022/07/10 08:14:14;;;;;;;0.47;0.47;;;19.80;99.90;;;;;;5056856;28;20060;-87
2022/07/10 08:16:41;;;;;;;0.82;0.40;;;19.90;99.90;;;;;;5041532;28;20535;-87
2022/07/10 08:19:08;;;;;;;0.50;0.50;;;19.90;99.90;;;;;;5064228;28;20048;-87
2022/07/10 08:21:38;;;;;;;0.30;0.30;;;19.90;99.90;;;;;;5045329;28;20175;-89
2022/07/10 08:24:11;;;;;;;0.40;0.40;;;20.00;99.90;;;;;;5043148;28;20393;-90
2022/07/10 08:26:47;;;;;;;0.40;0.40;;;20.10;99.90;;;;;;5071413;28;22023;-89
2022/07/10 08:29:15;;;;;;;0.30;0.30;;;20.10;99.90;;;;;;5045031;28;20051;-89
2022/07/10 08:31:42;;;;;;;0.90;0.40;;;20.20;99.90;;;;;;5047019;28;20056;-89
2022/07/10 08:34:09;;;;;;;0.47;0.40;;;20.20;99.90;;;;;;5060880;28;20052;-89
2022/07/10 08:36:36;;;;;;;0.82;0.50;;;20.30;99.90;;;;;;5068541;28;20461;-89
2022/07/10 08:39:10;;;;;;;0.43;0.43;;;20.40;99.90;;;;;;5044855;28;20048;-88
2022/07/10 08:41:37;;;;;;;0.52;0.52;;;20.50;99.90;;;;;;5049275;28;20048;-89
2022/07/10 08:44:04;;;;;;;0.30;0.30;;;20.50;99.90;;;;;;5043604;28;20044;-89
2022/07/10 08:46:31;;;;;;;0.68;0.45;;;20.60;99.90;;;;;;5048041;28;20097;-89
2022/07/10 08:48:59;;;;;;;0.40;0.40;;;20.60;99.90;;;;;;5044481;28;20056;-89
2022/07/10 08:51:37;;;;;;;0.20;0.20;;;20.60;99.90;;;;;;5056068;28;20130;-87
2022/07/10 08:54:04;;;;;;;0.20;0.20;;;20.70;99.90;;;;;;5040363;28;20044;-88
2022/07/10 08:56:32;;;;;;;0.30;0.30;;;20.80;99.90;;;;;;5032593;28;20052;-88
2022/07/10 08:58:58;;;;;;;0.22;0.22;;;20.80;99.90;;;;;;5031149;28;20053;-88
2022/07/10 09:01:25;;;;;;;0.28;0.28;;;20.80;99.80;;;;;;5033638;28;20144;-89
2022/07/10 09:03:55;;;;;;;0.63;0.40;;;20.90;99.50;;;;;;5031270;28;20391;-90
2022/07/10 09:06:23;;;;;;;0.35;0.35;;;20.90;99.50;;;;;;5031240;28;20056;-88
2022/07/10 09:09:04;;;;;;;0.20;0.20;;;20.90;99.60;;;;;;5050492;28;20094;-90
2022/07/10 09:12:19;;;;;;;;;;;;;;;;;;;;;
2022/07/10 09:15:18;;;;;;;0.30;0.30;;;21.00;99.40;;;;;;5053728;28;20148;-89
2022/07/10 09:17:52;;;;;;;0.45;0.45;;;21.10;99.20;;;;;;5033351;28;20045;-87
2022/07/10 09:20:27;;;;;;;0.45;0.40;;;21.30;99.50;;;;;;5034967;28;20075;-88
2022/07/10 09:22:55;;;;;;;0.30;0.30;;;21.40;99.20;;;;;;5050402;28;20435;-88
2022/07/10 09:25:24;;;;;;;0.35;0.30;;;21.40;99.00;;;;;;5051018;28;20044;-87
2022/07/10 09:27:52;;;;;;;0.55;0.50;;;21.50;98.50;;;;;;5033144;28;20060;-88
2022/07/10 09:30:36;;;;;;;0.60;0.30;;;21.60;98.40;;;;;;5031839;28;20044;-86
2022/07/10 09:33:24;;;;;;;0.60;0.38;;;21.60;99.00;;;;;;5033088;28;20049;-87
2022/07/10 09:36:05;;;;;;;0.40;0.40;;;21.80;98.40;;;;;;5042353;28;20094;-88
2022/07/10 09:42:02;;;;;;;0.55;0.50;;;21.80;98.10;;;;;;5053671;28;20482;-90
2022/07/10 09:44:28;;;;;;;1.17;0.38;;;22.00;98.00;;;;;;5040570;28;20523;-87
2022/07/10 09:46:57;;;;;;;0.90;0.85;;;22.10;97.80;;;;;;5046474;28;20048;-88
2022/07/10 09:49:28;;;;;;;;;;;22.20;97.70;;;;;;5047842;28;20048;-87
2022/07/10 09:51:56;;;;;;;1.00;0.52;;;22.20;97.50;;;;;;5052840;28;19963;-87
2022/07/10 09:54:23;;;;;;;0.50;0.40;;;22.20;97.50;;;;;;5036890;28;20052;-87
2022/07/10 09:56:55;;;;;;;0.52;0.32;;;22.20;97.50;;;;;;5032658;28;20872;-86
2022/07/10 09:59:22;;;;;;;0.30;0.30;;;22.30;97.40;;;;;;5043656;28;20157;-87
2022/07/10 10:01:53;;;;;;;0.50;0.50;;;22.50;96.80;;;;;;5058936;28;20056;-87
2022/07/10 10:04:25;;;;;;;0.40;0.40;;;22.50;96.80;;;;;;5044015;28;20156;-87
2022/07/10 10:06:53;;;;;;;0.40;0.40;;;22.60;96.60;;;;;;5042868;28;20083;-86
2022/07/10 10:09:34;;;;;;;0.35;0.35;;;22.50;96.30;;;;;;5055954;28;20539;-87
2022/07/10 10:12:16;;;;;;;0.30;0.30;;;22.60;96.30;;;;;;5049037;28;20201;-87
2022/07/10 10:14:44;;;;;;;0.30;0.30;;;22.80;96.30;;;;;;5068713;28;20048;-90
2022/07/10 10:17:11;;;;;;;0.30;0.30;;;22.90;96.20;;;;;;5052171;28;20659;-86
2022/07/10 10:22:34;;;;;;;0.50;0.40;;;23.10;95.80;;;;;;5052581;28;20040;-87
2022/07/10 10:25:13;;;;;;;0.47;0.45;;;23.20;95.20;;;;;;5068228;28;20056;-87
2022/07/10 10:28:08;;;;;;;0.75;0.65;;;23.30;94.50;;;;;;5067338;28;20045;-86
2022/07/10 10:30:43;;;;;;;0.50;0.50;;;23.30;94.70;;;;;;5040505;28;20048;-87
2022/07/10 10:33:40;;;;;;;;;;;23.30;94.90;;;;;;5042065;28;20053;-87
2022/07/10 10:36:13;;;;;;;0.50;0.40;;;23.20;94.20;;;;;;5063356;28;19956;-87
2022/07/10 10:38:51;;;;;;;1.20;0.57;;;23.40;94.50;;;;;;5045842;28;20075;-87
2022/07/10 10:41:41;;;;;;;0.60;0.50;;;23.50;94.10;;;;;;5058027;28;20103;-88
2022/07/10 10:44:09;;;;;;;0.43;0.40;;;23.50;93.80;;;;;;5036582;28;20059;-87
2022/07/10 10:49:50;;;;;;;0.50;0.30;;;23.80;93.90;;;;;;5041399;28;20102;-87
2022/07/10 10:52:17;;;;;;;0.50;0.40;;;24.00;93.40;;;;;;5022399;28;20052;-87
2022/07/10 10:54:57;;;;;;;0.75;0.50;;;24.10;92.10;;;;;;5025509;28;20049;-86
2022/07/10 10:57:35;;;;;;;0.93;0.60;;;24.10;92.50;;;;;;5048765;28;20128;-89
2022/07/10 11:00:06;;;;;;;0.90;0.60;;;24.10;92.00;;;;;;5054109;28;20443;-89
2022/07/10 11:02:38;;;;;;;0.30;0.30;;;24.20;92.10;;;;;;5036142;28;20471;-90
2022/07/10 11:05:20;;;;;;;0.40;0.32;;;24.20;91.60;;;;;;5032422;28;20495;-94
2022/07/10 11:08:03;;;;;;;0.57;0.40;;;24.30;91.80;;;;;;5063560;28;20407;-91
2022/07/10 11:10:40;;;;;;;0.60;0.40;;;24.40;91.70;;;;;;5028633;28;20091;-88
2022/07/10 11:13:15;;;;;;;0.75;0.30;;;24.40;91.20;;;;;;5051685;28;20055;-89
2022/07/10 11:15:47;;;;;;;0.68;0.40;;;24.40;91.00;;;;;;5032736;28;20068;-87
2022/07/10 11:18:15;;;;;;;0.60;0.55;;;24.60;91.30;;;;;;5022499;28;20083;-91
2022/07/10 11:20:50;;;;;;;0.20;0.20;;;24.60;91.10;;;;;;5029858;28;20049;-87
2022/07/10 11:23:41;;;;;;;0.30;0.30;;;24.80;90.40;;;;;;5045704;28;20041;-86
2022/07/10 11:26:11;;;;;;;0.28;0.25;;;25.00;90.10;;;;;;5048316;28;20071;-90
2022/07/10 11:28:47;;;;;;;1.27;0.57;;;25.20;90.00;;;;;;5035002;28;20059;-87
2022/07/10 11:31:16;;;;;;;0.40;0.35;;;25.40;89.20;;;;;;5060651;28;20048;-86
2022/07/10 11:33:46;;;;;;;0.73;0.35;;;25.50;87.80;;;;;;5050174;28;20098;-86
2022/07/10 11:36:25;;;;;;;0.40;0.40;;;25.70;87.80;;;;;;5034849;28;20052;-86
2022/07/10 11:39:25;;;;;;;0.35;0.30;;;26.00;86.00;;;;;;5060577;28;20479;-91
2022/07/10 11:42:46;;;;;;;;;;;;;;;;;;;;;
2022/07/10 11:48:39;;;;;;;2.65;0.60;;;27.20;82.10;;;;;;5027774;28;20052;-89
2022/07/10 11:51:32;;;;;;;0.55;0.40;;;27.30;83.00;;;;;;4993741;28;20443;-90
2022/07/10 11:54:08;;;;;;;0.30;0.30;;;27.50;82.00;;;;;;4994751;28;20057;-90
2022/07/10 11:56:36;;;;;;;0.47;0.47;;;27.60;81.20;;;;;;4990331;28;20044;-90
2022/07/10 11:59:08;;;;;;;0.30;0.30;;;27.50;80.00;;;;;;4989104;28;20370;-90
2022/07/10 12:01:49;;;;;;;0.65;0.40;;;27.60;80.60;;;;;;4992107;28;20142;-91
2022/07/10 12:04:38;;;;;;;0.30;0.30;;;27.80;80.30;;;;;;4990807;28;20049;-91
2022/07/10 12:07:04;;;;;;;0.30;0.30;;;28.10;80.20;;;;;;5024223;28;20072;-91
2022/07/10 12:09:38;;;;;;;0.45;0.43;;;28.80;78.40;;;;;;4990494;28;20105;-90
2022/07/10 12:12:06;;;;;;;0.40;0.40;;;28.90;77.50;;;;;;4995523;28;20523;-90
2022/07/10 12:14:35;;;;;;;0.40;0.40;;;29.30;75.60;;;;;;5026273;28;20135;-90
2022/07/10 12:17:10;;;;;;;0.50;0.50;;;29.50;74.10;;;;;;5026155;28;20053;-92
2022/07/10 12:19:40;;;;;;;0.50;0.40;;;29.60;73.50;;;;;;5028556;28;20060;-91
2022/07/10 12:22:15;;;;;;;0.40;0.40;;;29.70;72.60;;;;;;5044615;28;20183;-89
2022/07/10 12:24:42;;;;;;;0.90;0.40;;;29.70;73.30;;;;;;5030154;28;20083;-89
2022/07/10 12:27:46;;;;;;;0.45;0.45;;;30.20;71.50;;;;;;5029048;28;20048;-93
2022/07/10 12:33:19;;;;;;;0.63;0.57;;;30.40;70.30;;;;;;5814046;22;20044;-78
2022/07/10 12:35:56;;;;;;;0.50;0.50;;;30.60;70.50;;;;;;5014307;28;20104;-73
2022/07/10 12:38:28;;;;;;;0.40;0.38;;;31.10;68.90;;;;;;5005742;28;20505;-73
2022/07/10 12:41:11;;;;;;;0.45;0.43;;;31.40;68.30;;;;;;5018131;28;20061;-73
2022/07/10 12:43:38;;;;;;;0.60;0.60;;;31.80;67.50;;;;;;5038303;28;20048;-73
2022/07/10 12:46:21;;;;;;;0.40;0.40;;;32.20;67.50;;;;;;5055009;28;20510;-73
2022/07/10 12:49:12;;;;;;;0.35;0.35;;;32.30;65.00;;;;;;5065223;28;20139;-76
2022/07/10 12:51:42;;;;;;;0.40;0.40;;;31.80;65.00;;;;;;5064482;28;20053;-77
2022/07/10 12:54:36;;;;;;;0.30;0.30;;;31.80;64.60;;;;;;5064297;28;20127;-75
2022/07/10 12:57:04;;;;;;;0.38;0.38;;;32.10;64.10;;;;;;5031959;28;20052;-80
2022/07/10 12:59:35;;;;;;;0.57;0.38;;;32.60;64.90;;;;;;5038165;28;20164;-74
2022/07/10 13:02:16;;;;;;;1.27;0.40;;;33.30;64.80;;;;;;5044365;28;20048;-76
2022/07/10 13:04:56;;;;;;;0.35;0.35;;;33.80;63.90;;;;;;5047250;28;20076;-74
2022/07/10 13:07:31;;;;;;;0.60;0.43;;;34.00;61.40;;;;;;5046517;28;20056;-75
2022/07/10 13:10:05;;;;;;;0.40;0.40;;;33.90;61.30;;;;;;5030206;28;20052;-75
2022/07/10 13:12:33;;;;;;;0.30;0.25;;;33.80;60.70;;;;;;5047190;28;20056;-75
2022/07/10 13:15:01;;;;;;;0.40;0.40;;;33.80;60.70;;;;;;5042405;28;20045;-75
2022/07/10 13:17:28;;;;;;;0.65;0.50;;;33.90;61.60;;;;;;5019274;28;20477;-75
2022/07/10 13:19:56;;;;;;;0.20;0.20;;;34.30;60.40;;;;;;5044253;28;20497;-79
2022/07/10 13:22:23;;;;;;;0.30;0.30;;;34.70;60.00;;;;;;5025407;28;20048;-74
2022/07/10 13:24:50;;;;;;;0.50;0.40;;;34.40;59.10;;;;;;5046018;28;20678;-80
2022/07/10 13:27:17;;;;;;;0.63;0.30;;;33.50;59.70;;;;;;5046995;28;20057;-76
2022/07/10 13:29:44;;;;;;;0.50;0.50;;;32.70;60.00;;;;;;5046906;28;20052;-74
2022/07/10 13:32:11;;;;;;;0.47;0.47;;;32.00;61.00;;;;;;5029504;28;20052;-75